sensor_id;sensor_type;location;lat;lon;timestamp;temperature;humidity
21104;DHT22;10710;53.398;-1.514;2023-04-25T00:01:31;4.20;99.90
21104;DHT22;10710;53.398;-1.514;2023-04-25T00:04:17;4.10;99.90
21104;DHT22;10710;53.398;-1.514;2023-04-25T00:07:01;4.10;99.90
21104;DHT22;10710;53.398;-1.514;2023-04-25T00:09:45;4.10;99.90
21104;DHT22;10710;53.398;-1.514;2023-04-25T00:12:29;4.10;99.90
21104;DHT22;10710;53.398;-1.514;2023-04-25T00:15:14;4.20;99.90
21104;DHT22;10710;53.398;-1.514;2023-04-25T00:17:59;4.10;99.90
21104;DHT22;10710;53.398;-1.514;2023-04-25T00:20:43;4.10;99.90
21104;DHT22;10710;53.398;-1.514;2023-04-25T00:23:30;4.10;99.90
21104;DHT22;10710;53.398;-1.514;2023-04-25T00:26:14;4.10;99.90
21104;DHT22;10710;53.398;-1.514;2023-04-25T00:28:58;4.10;99.90
21104;DHT22;10710;53.398;-1.514;2023-04-25T00:31:43;4.10;99.90
21104;DHT22;10710;53.398;-1.514;2023-04-25T00:34:27;4.10;99.90
21104;DHT22;10710;53.398;-1.514;2023-04-25T00:37:11;4.00;99.90
21104;DHT22;10710;53.398;-1.514;2023-04-25T00:39:58;4.00;99.90
21104;DHT22;10710;53.398;-1.514;2023-04-25T00:42:42;3.90;99.90
21104;DHT22;10710;53.398;-1.514;2023-04-25T00:45:28;3.80;99.90
21104;DHT22;10710;53.398;-1.514;2023-04-25T00:48:14;3.80;99.90
21104;DHT22;10710;53.398;-1.514;2023-04-25T00:50:59;3.70;99.90
21104;DHT22;10710;53.398;-1.514;2023-04-25T00:53:44;3.60;99.90
21104;DHT22;10710;53.398;-1.514;2023-04-25T00:56:30;3.60;99.90
21104;DHT22;10710;53.398;-1.514;2023-04-25T00:59:14;3.40;99.90
21104;DHT22;10710;53.398;-1.514;2023-04-25T01:01:59;3.40;99.90
21104;DHT22;10710;53.398;-1.514;2023-04-25T01:04:44;3.50;99.90
21104;DHT22;10710;53.398;-1.514;2023-04-25T01:07:29;3.50;99.90
21104;DHT22;10710;53.398;-1.514;2023-04-25T01:10:14;3.50;99.90
21104;DHT22;10710;53.398;-1.514;2023-04-25T01:12:59;3.50;99.90
21104;DHT22;10710;53.398;-1.514;2023-04-25T01:15:44;3.50;99.90
21104;DHT22;10710;53.398;-1.514;2023-04-25T01:18:29;3.40;99.90
21104;DHT22;10710;53.398;-1.514;2023-04-25T01:21:13;3.40;99.90
21104;DHT22;10710;53.398;-1.514;2023-04-25T01:23:58;3.40;99.90
21104;DHT22;10710;53.398;-1.514;2023-04-25T01:26:43;3.40;99.90
21104;DHT22;10710;53.398;-1.514;2023-04-25T01:29:35;3.30;99.90
21104;DHT22;10710;53.398;-1.514;2023-04-25T01:32:19;3.30;99.90
21104;DHT22;10710;53.398;-1.514;2023-04-25T01:35:06;3.30;99.90
21104;DHT22;10710;53.398;-1.514;2023-04-25T01:37:53;3.30;99.90
21104;DHT22;10710;53.398;-1.514;2023-04-25T01:40:39;3.30;99.90
21104;DHT22;10710;53.398;-1.514;2023-04-25T01:43:24;3.30;99.90
21104;DHT22;10710;53.398;-1.514;2023-04-25T01:46:11;3.40;99.90
21104;DHT22;10710;53.398;-1.514;2023-04-25T01:48:55;3.40;99.90
21104;DHT22;10710;53.398;-1.514;2023-04-25T01:51:40;3.40;99.90
21104;DHT22;10710;53.398;-1.514;2023-04-25T01:54:24;3.50;99.90
21104;DHT22;10710;53.398;-1.514;2023-04-25T01:57:08;3.50;99.90
21104;DHT22;10710;53.398;-1.514;2023-04-25T01:59:59;3.50;99.90
21104;DHT22;10710;53.398;-1.514;2023-04-25T02:02:44;3.50;99.90
21104;DHT22;10710;53.398;-1.514;2023-04-25T02:05:34;3.50;99.90
21104;DHT22;10710;53.398;-1.514;2023-04-25T02:08:19;3.50;99.90
21104;DHT22;10710;53.398;-1.514;2023-04-25T02:11:03;3.50;99.90
21104;DHT22;10710;53.398;-1.514;2023-04-25T02:13:47;3.30;99.90
21104;DHT22;10710;53.398;-1.514;2023-04-25T02:16:31;3.30;99.90
21104;DHT22;10710;53.398;-1.514;2023-04-25T02:19:16;3.30;99.90
21104;DHT22;10710;53.398;-1.514;2023-04-25T02:22:00;3.40;99.90
21104;DHT22;10710;53.398;-1.514;2023-04-25T02:24:45;3.40;99.90
21104;DHT22;10710;53.398;-1.514;2023-04-25T02:27:29;3.40;99.90
21104;DHT22;10710;53.398;-1.514;2023-04-25T02:30:13;3.40;99.90
21104;DHT22;10710;53.398;-1.514;2023-04-25T02:32:58;3.30;99.90
21104;DHT22;10710;53.398;-1.514;2023-04-25T02:35:43;3.30;99.90
21104;DHT22;10710;53.398;-1.514;2023-04-25T02:38:27;3.40;99.90
21104;DHT22;10710;53.398;-1.514;2023-04-25T02:41:11;3.40;99.90
21104;DHT22;10710;53.398;-1.514;2023-04-25T02:43:55;3.40;99.90
21104;DHT22;10710;53.398;-1.514;2023-04-25T02:46:39;3.40;99.90
21104;DHT22;10710;53.398;-1.514;2023-04-25T02:49:23;3.30;99.90
21104;DHT22;10710;53.398;-1.514;2023-04-25T02:52:07;3.40;99.90
21104;DHT22;10710;53.398;-1.514;2023-04-25T02:54:51;3.40;99.90
21104;DHT22;10710;53.398;-1.514;2023-04-25T02:57:35;3.20;99.90
21104;DHT22;10710;53.398;-1.514;2023-04-25T03:00:20;3.10;99.90
21104;DHT22;10710;53.398;-1.514;2023-04-25T03:03:04;3.20;99.90
21104;DHT22;10710;53.398;-1.514;2023-04-25T03:05:49;3.10;99.90
21104;DHT22;10710;53.398;-1.514;2023-04-25T03:08:34;3.00;99.90
21104;DHT22;10710;53.398;-1.514;2023-04-25T03:11:18;2.90;99.90
21104;DHT22;10710;53.398;-1.514;2023-04-25T03:14:04;2.90;99.90
21104;DHT22;10710;53.398;-1.514;2023-04-25T03:16:49;3.00;99.90
21104;DHT22;10710;53.398;-1.514;2023-04-25T03:19:33;2.90;99.90
21104;DHT22;10710;53.398;-1.514;2023-04-25T03:22:17;2.90;99.90
21104;DHT22;10710;53.398;-1.514;2023-04-25T03:25:01;2.80;99.90
21104;DHT22;10710;53.398;-1.514;2023-04-25T03:27:46;2.90;99.90
21104;DHT22;10710;53.398;-1.514;2023-04-25T03:30:30;2.80;99.90
21104;DHT22;10710;53.398;-1.514;2023-04-25T03:33:14;2.80;99.90
21104;DHT22;10710;53.398;-1.514;2023-04-25T03:35:58;2.80;99.90
21104;DHT22;10710;53.398;-1.514;2023-04-25T03:38:42;2.70;99.90
21104;DHT22;10710;53.398;-1.514;2023-04-25T03:41:27;2.80;99.90
21104;DHT22;10710;53.398;-1.514;2023-04-25T03:44:12;2.80;99.90
21104;DHT22;10710;53.398;-1.514;2023-04-25T03:46:56;2.80;99.90
21104;DHT22;10710;53.398;-1.514;2023-04-25T03:49:41;2.80;99.90
21104;DHT22;10710;53.398;-1.514;2023-04-25T03:52:25;2.80;99.90
21104;DHT22;10710;53.398;-1.514;2023-04-25T03:55:10;2.80;99.90
21104;DHT22;10710;53.398;-1.514;2023-04-25T03:57:54;2.70;99.90
21104;DHT22;10710;53.398;-1.514;2023-04-25T04:00:38;2.80;99.90
21104;DHT22;10710;53.398;-1.514;2023-04-25T04:03:23;2.70;99.90
21104;DHT22;10710;53.398;-1.514;2023-04-25T04:06:07;2.70;99.90
21104;DHT22;10710;53.398;-1.514;2023-04-25T04:08:52;2.80;99.90
21104;DHT22;10710;53.398;-1.514;2023-04-25T04:11:38;2.70;99.90
21104;DHT22;10710;53.398;-1.514;2023-04-25T04:14:22;2.70;99.90
21104;DHT22;10710;53.398;-1.514;2023-04-25T04:17:06;2.70;99.90
21104;DHT22;10710;53.398;-1.514;2023-04-25T04:19:51;2.80;99.90
21104;DHT22;10710;53.398;-1.514;2023-04-25T04:22:35;2.80;99.90
21104;DHT22;10710;53.398;-1.514;2023-04-25T04:25:20;2.80;99.90
21104;DHT22;10710;53.398;-1.514;2023-04-25T04:28:04;2.80;99.90
21104;DHT22;10710;53.398;-1.514;2023-04-25T04:30:49;2.70;99.90
21104;DHT22;10710;53.398;-1.514;2023-04-25T04:33:35;2.70;99.90
21104;DHT22;10710;53.398;-1.514;2023-04-25T04:36:19;2.60;99.90
21104;DHT22;10710;53.398;-1.514;2023-04-25T04:39:06;2.60;99.90
21104;DHT22;10710;53.398;-1.514;2023-04-25T04:41:50;2.60;99.90
21104;DHT22;10710;53.398;-1.514;2023-04-25T04:44:35;2.50;99.90
21104;DHT22;10710;53.398;-1.514;2023-04-25T04:47:20;2.40;99.90
21104;DHT22;10710;53.398;-1.514;2023-04-25T04:50:06;2.50;99.90
21104;DHT22;10710;53.398;-1.514;2023-04-25T04:52:52;2.50;99.90
21104;DHT22;10710;53.398;-1.514;2023-04-25T04:55:36;2.60;99.90
21104;DHT22;10710;53.398;-1.514;2023-04-25T04:58:21;2.50;99.90
21104;DHT22;10710;53.398;-1.514;2023-04-25T05:01:05;2.50;99.90
21104;DHT22;10710;53.398;-1.514;2023-04-25T05:03:49;2.50;99.90
21104;DHT22;10710;53.398;-1.514;2023-04-25T05:06:34;2.50;99.90
21104;DHT22;10710;53.398;-1.514;2023-04-25T05:09:18;2.50;99.90
21104;DHT22;10710;53.398;-1.514;2023-04-25T05:12:03;2.60;99.90
21104;DHT22;10710;53.398;-1.514;2023-04-25T05:14:48;2.70;99.90
21104;DHT22;10710;53.398;-1.514;2023-04-25T05:17:32;2.70;99.90
21104;DHT22;10710;53.398;-1.514;2023-04-25T05:20:17;2.70;99.90
21104;DHT22;10710;53.398;-1.514;2023-04-25T05:23:03;2.70;99.90
21104;DHT22;10710;53.398;-1.514;2023-04-25T05:25:48;2.70;99.90
21104;DHT22;10710;53.398;-1.514;2023-04-25T05:28:32;2.70;99.90
21104;DHT22;10710;53.398;-1.514;2023-04-25T05:31:16;2.70;99.90
21104;DHT22;10710;53.398;-1.514;2023-04-25T05:34:01;2.70;99.90
21104;DHT22;10710;53.398;-1.514;2023-04-25T05:36:45;2.70;99.90
21104;DHT22;10710;53.398;-1.514;2023-04-25T05:39:32;2.80;99.90
21104;DHT22;10710;53.398;-1.514;2023-04-25T05:42:17;2.90;99.90
21104;DHT22;10710;53.398;-1.514;2023-04-25T05:45:01;3.00;99.90
21104;DHT22;10710;53.398;-1.514;2023-04-25T05:47:46;3.00;99.90
21104;DHT22;10710;53.398;-1.514;2023-04-25T05:50:30;3.10;99.90
21104;DHT22;10710;53.398;-1.514;2023-04-25T05:53:14;3.20;99.90
21104;DHT22;10710;53.398;-1.514;2023-04-25T05:55:58;3.20;99.90
21104;DHT22;10710;53.398;-1.514;2023-04-25T05:58:42;3.30;99.90
21104;DHT22;10710;53.398;-1.514;2023-04-25T06:01:27;3.50;99.90
21104;DHT22;10710;53.398;-1.514;2023-04-25T06:04:11;3.50;99.90
21104;DHT22;10710;53.398;-1.514;2023-04-25T06:06:55;3.60;99.90
21104;DHT22;10710;53.398;-1.514;2023-04-25T06:09:39;3.80;99.90
21104;DHT22;10710;53.398;-1.514;2023-04-25T06:12:23;3.90;99.90
21104;DHT22;10710;53.398;-1.514;2023-04-25T06:15:08;4.10;99.90
21104;DHT22;10710;53.398;-1.514;2023-04-25T06:17:52;4.20;99.90
21104;DHT22;10710;53.398;-1.514;2023-04-25T06:20:36;4.30;99.90
21104;DHT22;10710;53.398;-1.514;2023-04-25T06:23:21;4.40;99.90
21104;DHT22;10710;53.398;-1.514;2023-04-25T06:26:05;4.40;99.90
21104;DHT22;10710;53.398;-1.514;2023-04-25T06:28:49;4.60;99.90
21104;DHT22;10710;53.398;-1.514;2023-04-25T06:31:34;4.70;99.90
21104;DHT22;10710;53.398;-1.514;2023-04-25T06:34:18;4.90;99.90
21104;DHT22;10710;53.398;-1.514;2023-04-25T06:37:02;5.00;99.90
21104;DHT22;10710;53.398;-1.514;2023-04-25T06:39:46;5.10;99.90
21104;DHT22;10710;53.398;-1.514;2023-04-25T06:42:31;5.10;99.90
21104;DHT22;10710;53.398;-1.514;2023-04-25T06:45:15;5.30;99.90
21104;DHT22;10710;53.398;-1.514;2023-04-25T06:47:59;5.40;99.90
21104;DHT22;10710;53.398;-1.514;2023-04-25T06:50:43;5.50;99.90
21104;DHT22;10710;53.398;-1.514;2023-04-25T06:53:28;5.50;99.90
21104;DHT22;10710;53.398;-1.514;2023-04-25T06:56:13;5.60;99.90
21104;DHT22;10710;53.398;-1.514;2023-04-25T06:58:57;5.60;99.90
21104;DHT22;10710;53.398;-1.514;2023-04-25T07:01:41;5.80;99.90
21104;DHT22;10710;53.398;-1.514;2023-04-25T07:04:26;5.80;99.90
21104;DHT22;10710;53.398;-1.514;2023-04-25T07:07:10;5.80;99.90
21104;DHT22;10710;53.398;-1.514;2023-04-25T07:09:54;5.80;99.90
21104;DHT22;10710;53.398;-1.514;2023-04-25T07:12:39;6.00;99.90
21104;DHT22;10710;53.398;-1.514;2023-04-25T07:15:23;6.10;99.90
21104;DHT22;10710;53.398;-1.514;2023-04-25T07:18:07;6.10;99.90
21104;DHT22;10710;53.398;-1.514;2023-04-25T07:20:51;6.10;99.90
21104;DHT22;10710;53.398;-1.514;2023-04-25T07:23:36;6.10;99.90
21104;DHT22;10710;53.398;-1.514;2023-04-25T07:26:21;6.20;99.90
21104;DHT22;10710;53.398;-1.514;2023-04-25T07:29:06;6.20;99.90
21104;DHT22;10710;53.398;-1.514;2023-04-25T07:31:51;6.20;99.90
21104;DHT22;10710;53.398;-1.514;2023-04-25T07:34:35;6.30;99.90
21104;DHT22;10710;53.398;-1.514;2023-04-25T07:37:21;6.40;99.90
21104;DHT22;10710;53.398;-1.514;2023-04-25T07:40:06;6.50;99.90
21104;DHT22;10710;53.398;-1.514;2023-04-25T07:42:51;6.60;99.90
21104;DHT22;10710;53.398;-1.514;2023-04-25T07:45:35;6.70;99.90
21104;DHT22;10710;53.398;-1.514;2023-04-25T07:48:20;6.70;99.90
21104;DHT22;10710;53.398;-1.514;2023-04-25T07:51:04;6.70;99.90
21104;DHT22;10710;53.398;-1.514;2023-04-25T07:53:49;6.80;99.90
21104;DHT22;10710;53.398;-1.514;2023-04-25T07:56:33;6.90;99.90
21104;DHT22;10710;53.398;-1.514;2023-04-25T07:59:17;7.00;99.90
21104;DHT22;10710;53.398;-1.514;2023-04-25T08:02:01;7.00;99.90
21104;DHT22;10710;53.398;-1.514;2023-04-25T08:04:46;7.00;99.90
21104;DHT22;10710;53.398;-1.514;2023-04-25T08:07:30;7.10;99.90
21104;DHT22;10710;53.398;-1.514;2023-04-25T08:10:14;7.20;99.90
21104;DHT22;10710;53.398;-1.514;2023-04-25T08:12:59;7.20;99.90
21104;DHT22;10710;53.398;-1.514;2023-04-25T08:15:43;7.20;99.90
21104;DHT22;10710;53.398;-1.514;2023-04-25T08:18:28;7.20;99.90
21104;DHT22;10710;53.398;-1.514;2023-04-25T08:21:12;7.40;99.90
21104;DHT22;10710;53.398;-1.514;2023-04-25T08:23:57;7.50;99.90
21104;DHT22;10710;53.398;-1.514;2023-04-25T08:26:42;7.50;99.90
21104;DHT22;10710;53.398;-1.514;2023-04-25T08:29:26;7.50;99.90
21104;DHT22;10710;53.398;-1.514;2023-04-25T08:32:12;7.30;99.90
21104;DHT22;10710;53.398;-1.514;2023-04-25T08:34:57;7.50;99.90
21104;DHT22;10710;53.398;-1.514;2023-04-25T08:37:41;7.70;99.90
21104;DHT22;10710;53.398;-1.514;2023-04-25T08:40:27;7.70;99.90
21104;DHT22;10710;53.398;-1.514;2023-04-25T08:43:14;7.80;99.90
21104;DHT22;10710;53.398;-1.514;2023-04-25T08:45:59;7.90;99.90
21104;DHT22;10710;53.398;-1.514;2023-04-25T08:48:45;8.10;99.90
21104;DHT22;10710;53.398;-1.514;2023-04-25T08:51:33;8.10;99.90
21104;DHT22;10710;53.398;-1.514;2023-04-25T08:54:20;8.20;99.90
21104;DHT22;10710;53.398;-1.514;2023-04-25T08:57:07;8.20;99.90
21104;DHT22;10710;53.398;-1.514;2023-04-25T08:59:52;8.20;99.90
21104;DHT22;10710;53.398;-1.514;2023-04-25T09:02:38;8.20;99.90
21104;DHT22;10710;53.398;-1.514;2023-04-25T09:05:23;8.20;99.90
21104;DHT22;10710;53.398;-1.514;2023-04-25T09:08:08;8.20;99.90
21104;DHT22;10710;53.398;-1.514;2023-04-25T09:10:52;8.40;99.90
21104;DHT22;10710;53.398;-1.514;2023-04-25T09:13:37;8.50;99.90
21104;DHT22;10710;53.398;-1.514;2023-04-25T09:16:21;8.50;99.90
21104;DHT22;10710;53.398;-1.514;2023-04-25T09:19:06;8.50;99.90
21104;DHT22;10710;53.398;-1.514;2023-04-25T09:21:50;8.50;99.90
21104;DHT22;10710;53.398;-1.514;2023-04-25T09:24:39;8.70;99.90
21104;DHT22;10710;53.398;-1.514;2023-04-25T09:27:25;8.60;99.90
21104;DHT22;10710;53.398;-1.514;2023-04-25T09:30:11;8.70;99.90
21104;DHT22;10710;53.398;-1.514;2023-04-25T09:33:14;8.70;99.90
21104;DHT22;10710;53.398;-1.514;2023-04-25T09:36:09;8.90;99.90
21104;DHT22;10710;53.398;-1.514;2023-04-25T09:38:55;8.90;99.90
21104;DHT22;10710;53.398;-1.514;2023-04-25T09:41:41;8.90;99.90
21104;DHT22;10710;53.398;-1.514;2023-04-25T09:44:25;8.90;99.90
21104;DHT22;10710;53.398;-1.514;2023-04-25T09:47:11;8.90;99.90
21104;DHT22;10710;53.398;-1.514;2023-04-25T09:49:56;9.00;99.90
21104;DHT22;10710;53.398;-1.514;2023-04-25T09:52:41;8.70;99.90
21104;DHT22;10710;53.398;-1.514;2023-04-25T09:55:25;8.70;99.90
21104;DHT22;10710;53.398;-1.514;2023-04-25T09:58:11;8.80;99.90
21104;DHT22;10710;53.398;-1.514;2023-04-25T10:01:01;8.80;99.90
21104;DHT22;10710;53.398;-1.514;2023-04-25T10:03:48;8.90;99.90
21104;DHT22;10710;53.398;-1.514;2023-04-25T10:06:35;9.10;99.90
21104;DHT22;10710;53.398;-1.514;2023-04-25T10:09:25;9.30;99.90
21104;DHT22;10710;53.398;-1.514;2023-04-25T10:12:10;9.30;99.90
21104;DHT22;10710;53.398;-1.514;2023-04-25T10:14:55;9.20;99.90
21104;DHT22;10710;53.398;-1.514;2023-04-25T10:17:40;9.10;99.90
21104;DHT22;10710;53.398;-1.514;2023-04-25T10:20:25;9.10;99.90
21104;DHT22;10710;53.398;-1.514;2023-04-25T10:23:13;9.10;99.90
21104;DHT22;10710;53.398;-1.514;2023-04-25T10:25:59;9.30;99.90
21104;DHT22;10710;53.398;-1.514;2023-04-25T10:29:00;9.50;99.90
21104;DHT22;10710;53.398;-1.514;2023-04-25T10:31:46;9.70;99.90
21104;DHT22;10710;53.398;-1.514;2023-04-25T10:34:42;9.80;99.90
21104;DHT22;10710;53.398;-1.514;2023-04-25T10:37:27;9.70;99.90
21104;DHT22;10710;53.398;-1.514;2023-04-25T10:40:11;9.70;99.90
21104;DHT22;10710;53.398;-1.514;2023-04-25T10:49:08;9.90;99.90
21104;DHT22;10710;53.398;-1.514;2023-04-25T10:54:58;9.90;99.90
21104;DHT22;10710;53.398;-1.514;2023-04-25T10:57:44;10.00;99.90
21104;DHT22;10710;53.398;-1.514;2023-04-25T11:00:30;10.00;99.90
21104;DHT22;10710;53.398;-1.514;2023-04-25T11:03:16;10.20;99.90
21104;DHT22;10710;53.398;-1.514;2023-04-25T11:06:02;10.20;99.90
21104;DHT22;10710;53.398;-1.514;2023-04-25T11:08:50;10.50;99.90
21104;DHT22;10710;53.398;-1.514;2023-04-25T11:11:36;10.60;99.90
21104;DHT22;10710;53.398;-1.514;2023-04-25T11:14:20;10.90;99.90
21104;DHT22;10710;53.398;-1.514;2023-04-25T11:17:05;10.90;99.90
21104;DHT22;10710;53.398;-1.514;2023-04-25T11:19:49;10.80;99.90
21104;DHT22;10710;53.398;-1.514;2023-04-25T11:22:34;10.80;99.90
21104;DHT22;10710;53.398;-1.514;2023-04-25T11:25:19;10.70;99.90
21104;DHT22;10710;53.398;-1.514;2023-04-25T11:28:04;10.60;99.90
21104;DHT22;10710;53.398;-1.514;2023-04-25T11:30:49;10.70;99.90
21104;DHT22;10710;53.398;-1.514;2023-04-25T11:33:36;10.80;99.90
21104;DHT22;10710;53.398;-1.514;2023-04-25T11:36:23;10.90;99.90
21104;DHT22;10710;53.398;-1.514;2023-04-25T11:39:08;10.70;99.90
21104;DHT22;10710;53.398;-1.514;2023-04-25T11:41:53;10.50;99.90
21104;DHT22;10710;53.398;-1.514;2023-04-25T11:44:38;10.40;99.90
21104;DHT22;10710;53.398;-1.514;2023-04-25T11:47:29;10.40;99.90
21104;DHT22;10710;53.398;-1.514;2023-04-25T11:50:13;10.40;99.90
21104;DHT22;10710;53.398;-1.514;2023-04-25T11:52:58;10.40;99.90
21104;DHT22;10710;53.398;-1.514;2023-04-25T11:55:43;10.50;99.90
21104;DHT22;10710;53.398;-1.514;2023-04-25T11:58:27;10.50;99.90
21104;DHT22;10710;53.398;-1.514;2023-04-25T12:01:11;10.50;99.90
21104;DHT22;10710;53.398;-1.514;2023-04-25T12:03:55;10.70;99.90
21104;DHT22;10710;53.398;-1.514;2023-04-25T12:06:41;10.70;99.90
21104;DHT22;10710;53.398;-1.514;2023-04-25T12:09:31;10.80;99.90
21104;DHT22;10710;53.398;-1.514;2023-04-25T12:12:16;10.90;99.90
21104;DHT22;10710;53.398;-1.514;2023-04-25T12:15:13;11.00;99.90
21104;DHT22;10710;53.398;-1.514;2023-04-25T12:18:03;11.10;99.90
21104;DHT22;10710;53.398;-1.514;2023-04-25T12:20:47;11.20;99.90
21104;DHT22;10710;53.398;-1.514;2023-04-25T12:23:31;11.40;99.90
21104;DHT22;10710;53.398;-1.514;2023-04-25T12:26:18;11.40;99.90
21104;DHT22;10710;53.398;-1.514;2023-04-25T12:29:15;11.40;99.90
21104;DHT22;10710;53.398;-1.514;2023-04-25T12:32:00;11.30;99.90
21104;DHT22;10710;53.398;-1.514;2023-04-25T12:34:45;11.20;99.90
21104;DHT22;10710;53.398;-1.514;2023-04-25T12:37:30;11.40;99.90
21104;DHT22;10710;53.398;-1.514;2023-04-25T12:40:14;11.30;99.90
21104;DHT22;10710;53.398;-1.514;2023-04-25T12:42:59;11.30;99.90
21104;DHT22;10710;53.398;-1.514;2023-04-25T12:45:48;11.60;99.90
21104;DHT22;10710;53.398;-1.514;2023-04-25T12:48:33;11.80;99.90
21104;DHT22;10710;53.398;-1.514;2023-04-25T12:51:17;11.90;99.90
21104;DHT22;10710;53.398;-1.514;2023-04-25T12:54:03;12.00;99.90
21104;DHT22;10710;53.398;-1.514;2023-04-25T12:56:48;12.00;99.90
21104;DHT22;10710;53.398;-1.514;2023-04-25T12:59:34;12.10;99.90
21104;DHT22;10710;53.398;-1.514;2023-04-25T13:02:18;12.30;99.90
21104;DHT22;10710;53.398;-1.514;2023-04-25T13:05:03;12.30;99.90
21104;DHT22;10710;53.398;-1.514;2023-04-25T13:07:47;12.40;99.90
21104;DHT22;10710;53.398;-1.514;2023-04-25T13:10:32;12.70;99.90
21104;DHT22;10710;53.398;-1.514;2023-04-25T13:13:17;13.00;99.90
21104;DHT22;10710;53.398;-1.514;2023-04-25T13:16:02;13.10;99.90
21104;DHT22;10710;53.398;-1.514;2023-04-25T13:18:46;13.10;99.90
21104;DHT22;10710;53.398;-1.514;2023-04-25T13:21:31;13.30;99.90
21104;DHT22;10710;53.398;-1.514;2023-04-25T13:24:16;13.70;99.90
21104;DHT22;10710;53.398;-1.514;2023-04-25T13:27:00;14.40;99.90
21104;DHT22;10710;53.398;-1.514;2023-04-25T13:29:45;14.60;99.90
21104;DHT22;10710;53.398;-1.514;2023-04-25T13:32:29;14.80;99.90
21104;DHT22;10710;53.398;-1.514;2023-04-25T13:35:13;15.10;99.90
21104;DHT22;10710;53.398;-1.514;2023-04-25T13:37:58;15.60;99.90
21104;DHT22;10710;53.398;-1.514;2023-04-25T13:40:42;16.00;99.90
21104;DHT22;10710;53.398;-1.514;2023-04-25T13:43:26;16.50;99.90
21104;DHT22;10710;53.398;-1.514;2023-04-25T13:46:10;16.80;99.60
21104;DHT22;10710;53.398;-1.514;2023-04-25T13:48:56;17.10;99.90
21104;DHT22;10710;53.398;-1.514;2023-04-25T13:51:41;17.20;98.00
21104;DHT22;10710;53.398;-1.514;2023-04-25T13:54:26;17.70;97.40
21104;DHT22;10710;53.398;-1.514;2023-04-25T13:57:10;17.60;96.80
21104;DHT22;10710;53.398;-1.514;2023-04-25T14:00:03;18.30;98.40
21104;DHT22;10710;53.398;-1.514;2023-04-25T14:03:00;18.70;97.40
21104;DHT22;10710;53.398;-1.514;2023-04-25T14:05:47;19.00;95.20
21104;DHT22;10710;53.398;-1.514;2023-04-25T14:08:32;19.00;96.40
21104;DHT22;10710;53.398;-1.514;2023-04-25T14:11:16;18.40;94.90
21104;DHT22;10710;53.398;-1.514;2023-04-25T14:14:02;18.20;95.50
21104;DHT22;10710;53.398;-1.514;2023-04-25T14:16:56;18.20;95.10
21104;DHT22;10710;53.398;-1.514;2023-04-25T14:19:44;18.50;96.90
21104;DHT22;10710;53.398;-1.514;2023-04-25T14:22:37;19.10;96.40
21104;DHT22;10710;53.398;-1.514;2023-04-25T14:25:35;19.70;94.50
21104;DHT22;10710;53.398;-1.514;2023-04-25T14:28:22;19.80;93.20
21104;DHT22;10710;53.398;-1.514;2023-04-25T14:31:07;20.00;94.00
21104;DHT22;10710;53.398;-1.514;2023-04-25T14:33:58;20.70;93.50
21104;DHT22;10710;53.398;-1.514;2023-04-25T14:36:48;21.40;90.90
21104;DHT22;10710;53.398;-1.514;2023-04-25T14:39:33;22.40;92.50
21104;DHT22;10710;53.398;-1.514;2023-04-25T14:42:22;22.30;90.60
21104;DHT22;10710;53.398;-1.514;2023-04-25T14:45:08;22.50;84.90
21104;DHT22;10710;53.398;-1.514;2023-04-25T14:47:53;22.30;84.70
21104;DHT22;10710;53.398;-1.514;2023-04-25T14:50:40;22.20;84.90
21104;DHT22;10710;53.398;-1.514;2023-04-25T14:53:25;21.60;85.80
21104;DHT22;10710;53.398;-1.514;2023-04-25T14:56:13;22.30;89.20
21104;DHT22;10710;53.398;-1.514;2023-04-25T14:58:58;22.60;83.70
21104;DHT22;10710;53.398;-1.514;2023-04-25T15:01:43;21.90;83.40
21104;DHT22;10710;53.398;-1.514;2023-04-25T15:04:30;22.20;82.50
21104;DHT22;10710;53.398;-1.514;2023-04-25T15:07:15;21.70;86.60
21104;DHT22;10710;53.398;-1.514;2023-04-25T15:10:03;21.80;83.80
21104;DHT22;10710;53.398;-1.514;2023-04-25T15:12:50;22.00;82.90
21104;DHT22;10710;53.398;-1.514;2023-04-25T15:15:38;21.20;84.20
21104;DHT22;10710;53.398;-1.514;2023-04-25T15:18:23;19.70;84.60
21104;DHT22;10710;53.398;-1.514;2023-04-25T15:21:08;18.80;84.50
21104;DHT22;10710;53.398;-1.514;2023-04-25T15:23:53;18.20;86.80
21104;DHT22;10710;53.398;-1.514;2023-04-25T15:26:37;17.80;86.90
21104;DHT22;10710;53.398;-1.514;2023-04-25T15:29:22;17.70;88.50
21104;DHT22;10710;53.398;-1.514;2023-04-25T15:32:10;17.40;87.70
21104;DHT22;10710;53.398;-1.514;2023-04-25T15:34:55;16.90;91.80
